Time,TemperatureF,DewpointF,PressureIn,WindDirection,WindDirectionDegrees,WindSpeedMPH,WindSpeedGustMPH,Humidity,HourlyPrecipIn,Conditions,Clouds,dailyrainin,SoftwareType,DateUTC
2015-08-04 00:04:00,71.8,66.0,29.86,East,83,1.0,1.0,82,0.00,,,1.61,Wunderground v.1.13,2015-08-04 04:04:00,
2015-08-04 00:14:00,71.6,66.2,29.86,East,83,0.0,8.0,83,0.00,,,0.00,Wunderground v.1.13,2015-08-04 04:14:00,
2015-08-04 00:24:00,72.0,66.6,29.86,East,83,0.0,8.0,83,0.00,,,0.00,Wunderground v.1.13,2015-08-04 04:24:00,
2015-08-04 00:34:00,72.3,66.5,29.86,East,83,0.0,8.0,82,0.00,,,0.00,Wunderground v.1.13,2015-08-04 04:34:00,
2015-08-04 00:44:00,72.5,66.7,29.86,East,83,0.0,8.0,82,0.00,,,0.00,Wunderground v.1.13,2015-08-04 04:44:00,
2015-08-04 00:54:00,72.5,66.3,29.87,East,83,0.0,8.0,81,0.00,,,0.00,Wunderground v.1.13,2015-08-04 04:54:00,
2015-08-04 01:04:00,72.1,66.3,29.87,East,83,0.0,8.0,82,0.00,,,0.00,Wunderground v.1.13,2015-08-04 05:04:00,
2015-08-04 01:14:00,71.8,66.0,29.86,East,83,0.0,8.0,82,0.00,,,0.00,Wunderground v.1.13,2015-08-04 05:14:00,
2015-08-04 01:24:00,71.5,66.1,29.86,East,83,0.0,8.0,83,0.00,,,0.00,Wunderground v.1.13,2015-08-04 05:24:00,
2015-08-04 01:34:00,71.1,66.0,29.86,East,83,0.0,8.0,84,0.00,,,0.00,Wunderground v.1.13,2015-08-04 05:34:00,
2015-08-04 01:44:00,70.9,66.2,29.87,East,83,0.0,8.0,85,0.00,,,0.00,Wunderground v.1.13,2015-08-04 05:44:00,
2015-08-04 01:54:00,70.8,66.1,29.87,East,83,0.0,8.0,85,0.00,,,0.00,Wunderground v.1.13,2015-08-04 05:54:00,
2015-08-04 02:04:00,70.6,65.5,29.87,East,83,0.0,8.0,84,0.00,,,0.00,Wunderground v.1.13,2015-08-04 06:04:00,
2015-08-04 02:14:00,71.1,66.0,29.87,East,83,0.0,8.0,84,0.00,,,0.00,Wunderground v.1.13,2015-08-04 06:14:00,
2015-08-04 02:24:00,71.1,66.0,29.87,East,83,0.0,8.0,84,0.00,,,0.00,Wunderground v.1.13,2015-08-04 06:24:00,
2015-08-04 02:34:00,70.9,66.5,29.87,East,83,0.0,8.0,86,0.00,,,0.00,Wunderground v.1.13,2015-08-04 06:34:00,
2015-08-04 02:44:00,70.6,66.2,29.87,East,83,0.0,8.0,86,0.00,,,0.00,Wunderground v.1.13,2015-08-04 06:44:00,
2015-08-04 02:54:00,70.4,66.0,29.88,East,83,0.0,8.0,86,0.00,,,0.00,Wunderground v.1.13,2015-08-04 06:54:00,
2015-08-04 03:04:00,70.6,66.9,29.88,West,264,0.0,8.0,88,0.00,,,0.00,Wunderground v.1.13,2015-08-04 07:04:00,
2015-08-04 03:14:00,70.8,67.1,29.88,West,267,1.0,8.0,88,0.00,,,0.00,Wunderground v.1.13,2015-08-04 07:14:00,
2015-08-04 03:24:00,70.8,67.4,29.87,WNW,285,1.0,8.0,89,0.00,,,0.00,Wunderground v.1.13,2015-08-04 07:24:00,
2015-08-04 03:34:00,70.6,67.2,29.87,WNW,287,0.0,8.0,89,0.00,,,0.00,Wunderground v.1.13,2015-08-04 07:34:00,
2015-08-04 03:44:00,70.4,67.0,29.87,WNW,287,0.0,8.0,89,0.00,,,0.00,Wunderground v.1.13,2015-08-04 07:44:00,
2015-08-04 03:54:00,70.4,67.0,29.87,WNW,287,0.0,8.0,89,0.00,,,0.00,Wunderground v.1.13,2015-08-04 07:54:00,
2015-08-04 04:04:00,70.6,67.2,29.87,WNW,287,0.0,8.0,89,0.00,,,0.00,Wunderground v.1.13,2015-08-04 08:04:00,
2015-08-04 04:14:00,70.6,67.2,29.87,WNW,287,0.0,8.0,89,0.00,,,0.00,Wunderground v.1.13,2015-08-04 08:14:00,
2015-08-04 04:24:00,70.8,67.4,29.87,WNW,294,0.0,8.0,89,0.00,,,0.00,Wunderground v.1.13,2015-08-04 08:24:00,
2015-08-04 04:34:00,70.8,67.1,29.87,WNW,295,0.0,8.0,88,0.00,,,0.00,Wunderground v.1.13,2015-08-04 08:34:00,
2015-08-04 04:44:00,70.6,66.9,29.87,WNW,296,1.0,1.0,88,0.00,,,0.00,Wunderground v.1.13,2015-08-04 08:44:00,
2015-08-04 04:54:00,70.6,67.2,29.88,WNW,296,0.0,8.0,89,0.00,,,0.00,Wunderground v.1.13,2015-08-04 08:54:00,
2015-08-04 05:04:00,70.6,66.5,29.88,WNW,299,0.0,8.0,87,0.00,,,0.00,Wunderground v.1.13,2015-08-04 09:04:00,
2015-08-04 05:14:00,70.4,66.7,29.88,WNW,299,0.0,8.0,88,0.00,,,0.00,Wunderground v.1.13,2015-08-04 09:14:00,
2015-08-04 05:24:00,70.3,66.2,29.88,WNW,299,0.0,8.0,87,0.00,,,0.00,Wunderground v.1.13,2015-08-04 09:24:00,
2015-08-04 05:34:00,69.9,65.9,29.88,WNW,299,0.0,8.0,87,0.00,,,0.00,Wunderground v.1.13,2015-08-04 09:34:00,
2015-08-04 05:44:00,69.6,65.9,29.89,WNW,299,0.0,8.0,88,0.00,,,0.00,Wunderground v.1.13,2015-08-04 09:44:00,
2015-08-04 05:54:00,69.4,66.0,29.89,WNW,299,0.0,8.0,89,0.00,,,0.00,Wunderground v.1.13,2015-08-04 09:54:00,
2015-08-04 06:04:00,69.1,65.7,29.89,WNW,299,0.0,8.0,89,0.00,,,0.00,Wunderground v.1.13,2015-08-04 10:04:00,
2015-08-04 06:14:00,68.9,65.8,29.89,WNW,299,0.0,8.0,90,0.00,,,0.00,Wunderground v.1.13,2015-08-04 10:14:00,
2015-08-04 06:24:00,69.1,66.0,29.91,WNW,299,0.0,8.0,90,0.00,,,0.00,Wunderground v.1.13,2015-08-04 10:24:00,
2015-08-04 06:34:00,69.1,66.0,29.91,WNW,299,0.0,8.0,90,0.00,,,0.00,Wunderground v.1.13,2015-08-04 10:34:00,
2015-08-04 06:44:00,69.1,65.7,29.91,WNW,299,0.0,8.0,89,0.00,,,0.00,Wunderground v.1.13,2015-08-04 10:44:00,
2015-08-04 06:54:00,69.3,65.9,29.92,WNW,299,0.0,8.0,89,0.00,,,0.00,Wunderground v.1.13,2015-08-04 10:54:00,
2015-08-04 07:04:00,69.6,66.2,29.92,WNW,299,0.0,8.0,89,0.00,,,0.00,Wunderground v.1.13,2015-08-04 11:04:00,
2015-08-04 07:14:00,69.6,65.9,29.92,WNW,301,0.0,8.0,88,0.00,,,0.00,Wunderground v.1.13,2015-08-04 11:14:00,
2015-08-04 07:24:00,69.6,65.6,29.92,WNW,301,0.0,8.0,87,0.00,,,0.00,Wunderground v.1.13,2015-08-04 11:24:00,
2015-08-04 07:34:00,69.4,65.4,29.92,WNW,301,0.0,8.0,87,0.00,,,0.00,Wunderground v.1.13,2015-08-04 11:34:00,
2015-08-04 07:44:00,69.6,65.6,29.92,WNW,301,0.0,8.0,87,0.00,,,0.00,Wunderground v.1.13,2015-08-04 11:44:00,
2015-08-04 07:54:00,69.9,65.9,29.92,WNW,301,0.0,8.0,87,0.00,,,0.00,Wunderground v.1.13,2015-08-04 11:54:00,
2015-08-04 08:04:00,70.1,65.7,29.92,WNW,301,0.0,8.0,86,0.00,,,0.00,Wunderground v.1.13,2015-08-04 12:04:00,
2015-08-04 08:14:00,70.3,66.2,29.92,WNW,295,0.0,8.0,87,0.00,,,0.00,Wunderground v.1.13,2015-08-04 12:14:00,
2015-08-04 08:24:00,70.8,66.4,29.92,SE,144,0.0,8.0,86,0.00,,,0.00,Wunderground v.1.13,2015-08-04 12:24:00,
2015-08-04 08:34:00,70.9,66.5,29.92,SE,144,0.0,8.0,86,0.00,,,0.00,Wunderground v.1.13,2015-08-04 12:34:00,
2015-08-04 08:44:00,71.1,66.7,29.93,South,182,0.0,8.0,86,0.00,,,0.00,Wunderground v.1.13,2015-08-04 12:44:00,
2015-08-04 08:54:00,71.5,66.8,29.93,South,186,0.0,8.0,85,0.00,,,0.00,Wunderground v.1.13,2015-08-04 12:54:00,
2015-08-04 09:04:00,71.8,67.4,29.93,South,178,0.0,8.0,86,0.00,,,0.00,Wunderground v.1.13,2015-08-04 13:04:00,
2015-08-04 09:14:00,72.5,67.4,29.93,South,185,0.0,8.0,84,0.00,,,0.00,Wunderground v.1.13,2015-08-04 13:14:00,
2015-08-04 09:24:00,73.2,67.7,29.93,South,185,0.0,8.0,83,0.00,,,0.00,Wunderground v.1.13,2015-08-04 13:24:00,
2015-08-04 09:34:00,73.9,68.1,29.93,South,186,0.0,8.0,82,0.00,,,0.00,Wunderground v.1.13,2015-08-04 13:34:00,
2015-08-04 09:44:00,74.2,67.6,29.93,South,172,0.0,8.0,80,0.00,,,0.00,Wunderground v.1.13,2015-08-04 13:44:00,
2015-08-04 09:54:00,74.9,67.9,29.93,SSE,161,1.0,1.0,79,0.00,,,0.00,Wunderground v.1.13,2015-08-04 13:54:00,
2015-08-04 10:04:00,75.4,67.7,29.93,SE,136,2.0,2.0,77,0.00,,,0.00,Wunderground v.1.13,2015-08-04 14:04:00,
2015-08-04 10:14:00,76.1,68.0,29.93,SE,126,1.0,1.0,76,0.00,,,0.00,Wunderground v.1.13,2015-08-04 14:14:00,
2015-08-04 10:24:00,77.4,67.7,29.93,ESE,103,1.0,1.0,72,0.00,,,0.00,Wunderground v.1.13,2015-08-04 14:24:00,
2015-08-04 10:34:00,78.5,67.5,29.93,ESE,102,0.0,8.0,69,0.00,,,0.00,Wunderground v.1.13,2015-08-04 14:34:00,
2015-08-04 10:44:00,79.0,68.4,29.94,SE,144,0.0,8.0,70,0.00,,,0.00,Wunderground v.1.13,2015-08-04 14:44:00,
2015-08-04 10:54:00,79.8,67.4,29.93,SSE,150,0.0,8.0,66,0.00,,,0.00,Wunderground v.1.13,2015-08-04 14:54:00,
2015-08-04 11:04:00,80.1,67.3,29.93,SSE,150,0.0,8.0,65,0.00,,,0.00,Wunderground v.1.13,2015-08-04 15:04:00,
2015-08-04 11:14:00,80.5,66.3,29.93,SSE,152,0.0,8.0,62,0.00,,,0.00,Wunderground v.1.13,2015-08-04 15:14:00,
2015-08-04 11:24:00,81.2,64.0,29.93,SE,143,1.0,1.0,56,0.00,,,0.00,Wunderground v.1.13,2015-08-04 15:24:00,
2015-08-04 11:44:00,82.6,62.6,29.93,SSE,157,2.0,2.0,51,0.00,,,0.00,Wunderground v.1.13,2015-08-04 15:44:00,
2015-08-04 11:54:00,83.8,62.6,29.93,South,181,1.0,1.0,49,0.00,,,0.00,Wunderground v.1.13,2015-08-04 15:54:00,
2015-08-04 12:04:00,84.5,63.8,29.93,SSW,192,2.0,2.0,50,0.00,,,0.00,Wunderground v.1.13,2015-08-04 16:04:00,
2015-08-04 12:14:00,85.9,62.1,29.93,SSW,203,1.0,1.0,45,0.00,,,0.00,Wunderground v.1.13,2015-08-04 16:14:00,
2015-08-04 12:24:00,85.9,60.1,29.93,SE,127,3.0,7.0,42,0.00,,,0.00,Wunderground v.1.13,2015-08-04 16:24:00,
2015-08-04 12:34:00,86.7,60.2,29.93,SSE,154,1.0,1.0,41,0.00,,,0.00,Wunderground v.1.13,2015-08-04 16:34:00,
2015-08-04 12:44:00,87.6,60.3,29.93,SE,140,0.0,8.0,40,0.00,,,0.00,Wunderground v.1.13,2015-08-04 16:44:00,
2015-08-04 12:54:00,88.0,58.5,29.92,SSE,162,1.0,8.0,37,0.00,,,0.00,Wunderground v.1.13,2015-08-04 16:54:00,
2015-08-04 13:04:00,89.5,60.5,29.92,WSW,239,0.0,8.0,38,0.00,,,0.00,Wunderground v.1.13,2015-08-04 17:04:00,
2015-08-04 13:14:00,88.0,58.5,29.92,SE,136,3.0,8.0,37,0.00,,,0.00,Wunderground v.1.13,2015-08-04 17:14:00,
2015-08-04 13:24:00,86.5,58.6,29.92,East,96,2.0,2.0,39,0.00,,,0.00,Wunderground v.1.13,2015-08-04 17:24:00,
2015-08-04 13:34:00,87.4,54.8,29.92,SE,143,2.0,8.0,33,0.00,,,0.00,Wunderground v.1.13,2015-08-04 17:34:00,
2015-08-04 13:44:00,87.4,53.1,29.92,ESE,121,3.0,8.0,31,0.00,,,0.00,Wunderground v.1.13,2015-08-04 17:44:00,
2015-08-04 13:54:00,88.2,57.1,29.92,South,191,2.0,2.0,35,0.00,,,0.00,Wunderground v.1.13,2015-08-04 17:54:00,
2015-08-04 14:04:00,89.0,54.4,29.92,SSE,152,2.0,2.0,31,0.00,,,0.00,Wunderground v.1.13,2015-08-04 18:04:00,
2015-08-04 14:14:00,88.4,53.9,29.92,SSE,155,3.0,3.0,31,0.00,,,0.00,Wunderground v.1.13,2015-08-04 18:14:00,
2015-08-04 14:24:00,87.8,50.6,29.93,SE,140,3.0,8.0,28,0.00,,,0.00,Wunderground v.1.13,2015-08-04 18:24:00,
2015-08-04 14:34:00,87.8,52.5,29.93,SSE,160,4.0,4.0,30,0.00,,,0.00,Wunderground v.1.13,2015-08-04 18:34:00,
2015-08-04 14:44:00,88.4,50.2,29.92,SE,141,2.0,8.0,27,0.00,,,0.00,Wunderground v.1.13,2015-08-04 18:44:00,
2015-08-04 14:54:00,88.2,49.0,29.92,SSE,167,4.0,4.0,26,0.00,,,0.00,Wunderground v.1.13,2015-08-04 18:54:00,